Flight Track Log - Related Links

Times and Time Zones

All times are in EDT time to prevent confusion due to time zone crossing. See the VH-SLP flight status page for this flight to view local times or setup timezone preferences in your user account.

Time Position Orientation Groundspeed Altitude Reporting Facility
EDT Latitude Longitude Course Direction KTS MPH feet Rate Location/Type
Thu 05:37:56 PM -31.8583 152.4406 322° Northwest 8,000  Level Aus ATC (Calculated)
Thu 05:38:49 PM -31.8583 152.4406 322° Northwest 8,000 -809 Level Aus ATC (Calculated)
Thu 05:40:00 PM -31.8344 152.3878 298° West  Level FlightAware Approximate
Thu 05:40:38 PM -31.8271 152.3717 North 8,000  Level Aus ATC (Calculated)
Thu 05:41:31 PM -31.7884 152.3764 298° West 116 133 5,100 -1,705 Descending Aus ATC (RADAR)
Thu 05:42:06 PM -31.7809 152.3550 292° West 117 135 5,500 720 Climbing Aus ATC (RADAR)
Thu 05:42:21 PM -31.7780 152.3453 289° West 119 137 5,700 600 Climbing Aus ATC (RADAR)
Thu 05:42:56 PM -31.7697 152.3244 295° West 119 137 6,000 667 Climbing Aus ATC (RADAR)
Thu 05:43:51 PM -31.7567 152.2892 293° West 123 142 6,700 733 Climbing Aus ATC (RADAR)
Thu 05:44:26 PM -31.7495 152.2682 292° West 117 135 7,100 600 Climbing Aus ATC (RADAR)
Thu 05:45:21 PM -31.7367 152.2340 294° West 120 138 7,600 514 Climbing Aus ATC (RADAR)
Thu 05:45:36 PM -31.7331 152.2253 296° West 118 136 7,700 480 Climbing Aus ATC (RADAR)
Thu 05:46:11 PM -31.7253 152.2039 293° West 119 137 8,000 144 Climbing Aus ATC (RADAR)
Thu 05:47:41 PM -31.7038 152.1365 291° West 154 177 8,000  Level Aus ATC (RADAR)
Thu 05:47:56 PM -31.6995 152.1247 293° West 154 177 8,000  Level Aus ATC (RADAR)
Thu 05:48:30 PM -31.6903 152.0968 291° West 155 178 8,000 63 Level Aus ATC (RADAR)
Thu 05:49:31 PM -31.6735 152.0485 292° West 156 180 8,100  Climbing Aus ATC (RADAR)
Thu 05:50:10 PM -31.6620 152.0162 293° West 158 182 8,000 -64 Descending Aus ATC (RADAR)
Thu 05:51:05 PM -31.6467 151.9726 292° West 155 178 8,000 46 Level Aus ATC (RADAR)
Thu 05:52:20 PM -31.6256 151.9130 293° West 155 178 8,100 133 Climbing Aus ATC (RADAR)
Thu 05:52:35 PM -31.6212 151.9010 294° West 156 180 8,200  Climbing Aus ATC (RADAR)
Thu 05:53:10 PM -31.6114 151.8733 292° West 155 178 8,100 -126 Descending Aus ATC (RADAR)
Thu 05:54:10 PM -31.5939 151.8263 294° West 153 176 8,000  Descending Aus ATC (RADAR)
Thu 05:54:45 PM -31.5819 151.8002 298° West 152 175 8,100 126 Climbing Aus ATC (RADAR)
Thu 05:55:45 PM -31.5612 151.7550 298° West 154 177 8,200 -63 Climbing Aus ATC (RADAR)
Thu 05:56:20 PM -31.5496 151.7282 297° West 157 181 8,000 -114 Descending Aus ATC (RADAR)
Thu 05:57:30 PM -31.5271 151.6762 297° West 151 174 8,000  Level Aus ATC (RADAR)
Thu 05:57:45 PM -31.5213 151.6656 303° West 151 174 8,000 240 Level Aus ATC (RADAR)
Thu 05:58:20 PM -31.5068 151.6414 305° West 152 175 8,200  Climbing Aus ATC (RADAR)
Thu 05:59:20 PM -31.4811 151.6000 306° West 156 180 8,000 -128 Descending Aus ATC (RADAR)
Thu 05:59:54 PM -31.4660 151.5743 305° West 160 184 8,000  Level Aus ATC (RADAR)
Thu 06:00:51 PM -31.4495 151.5455 304° West 157 181 8,000  Level Aus ATC (RADAR)
Thu 06:01:22 PM -31.4417 151.5308 302° West 156 180 8,000  Level Aus ATC (RADAR)
Thu 06:02:39 PM -31.4067 151.4603 300° West 155 178 8,000  Level Aus ATC (RADAR)
Thu 06:03:28 PM -31.3904 151.4226 297° West 154 177 8,000  Level Aus ATC (RADAR)
Thu 06:04:29 PM -31.3671 151.3685 297° West 151 174 8,000 125 Level Aus ATC (RADAR)
Thu 06:05:04 PM -31.3549 151.3423 299° West 154 177 8,200 64 Climbing Aus ATC (RADAR)
Thu 06:06:03 PM -31.3405 151.3126 300° West 154 177 8,100 -130 Descending Aus ATC (RADAR)
Thu 06:06:36 PM -31.3218 151.2742 300° West 159 183 8,000 -52 Descending Aus ATC (RADAR)
Thu 06:07:59 PM -31.2886 151.2123 302° West 156 180 8,000  Level Aus ATC (RADAR)
Thu 06:08:44 PM -31.2706 151.1794 303° West 157 181 8,000  Level Aus ATC (RADAR)
Thu 06:09:43 PM -31.2467 151.1353 302° West 158 182 8,000  Level Aus ATC (RADAR)
Thu 06:10:18 PM -31.2329 151.1096 302° West 158 182 8,000  Level Aus ATC (RADAR)
Thu 06:11:08 PM -31.2131 151.0729 302° West 157 181 8,000  Level Aus ATC (RADAR)
Thu 06:11:43 PM -31.1992 151.0473 302° West 157 181 8,000  Level Aus ATC (RADAR)
Thu 06:13:33 PM -31.1563 150.9667 302° West 157 181 8,000  Level Aus ATC (RADAR)
Thu 06:13:48 PM -31.1501 150.9558 304° West 157 181 8,000  Level Aus ATC (RADAR)
Thu 06:14:33 PM -31.1325 150.9231 302° West 156 180 8,000  Level Aus ATC (RADAR)
Thu 06:15:08 PM -31.1180 150.8981 304° West 156 180 8,000  Level Aus ATC (RADAR)
Thu 06:16:03 PM -31.0936 150.8604 307° West 156 180 8,000  Level Aus ATC (RADAR)
Thu 06:16:23 PM -31.0840 150.8471 310° West 157 181 8,000  Level Aus ATC (RADAR)
Thu 06:18:23 PM -31.0557 150.7524 289° West 154 177 8,000  Level Aus ATC (RADAR)
Thu 06:18:48 PM -31.0507 150.7321 286° West 154 177 8,000  Level Aus ATC (RADAR)
Thu 06:19:22 PM -31.0438 150.7036 286° West 155 178 8,000  Level Aus ATC (RADAR)
Thu 06:20:22 PM -31.0323 150.6541 285° West 156 180 8,000  Level Aus ATC (RADAR)
Thu 06:20:52 PM -31.0267 150.6291 285° West 157 181 8,000  Level Aus ATC (RADAR)
Thu 06:21:37 PM -31.0185 150.5920 285° West 156 180 8,000 57 Level Aus ATC (RADAR)
Thu 06:22:37 PM -31.0073 150.5430 285° West 154 177 8,100  Climbing Aus ATC (RADAR)
Thu 06:23:22 PM -31.0002 150.5055 282° West 155 178 8,000 -75 Descending Aus ATC (RADAR)
Thu 06:23:57 PM -30.9947 150.4768 283° West 154 177 8,000 57 Level Aus ATC (RADAR)
Thu 06:25:07 PM -30.9852 150.4188 281° West 154 177 8,100 71 Climbing Aus ATC (RADAR)
Thu 06:25:22 PM -30.9830 150.4067 282° West 153 176 8,100 -120 Level Aus ATC (RADAR)
Thu 06:25:57 PM -30.9783 150.3777 281° West 154 177 8,000 -71 Descending Aus ATC (RADAR)
Thu 06:26:47 PM -30.9701 150.3372 283° West 153 176 8,000  Level Aus ATC (RADAR)
Thu 06:27:52 PM -30.9609 150.2836 281° West 154 177 8,000  Level Aus ATC (RADAR)
Thu 06:28:27 PM -30.9555 150.2553 283° West 153 176 8,000  Level Aus ATC (RADAR)
Thu 06:28:42 PM -30.9530 150.2432 284° West 152 175 8,000  Level Aus ATC (RADAR)
Thu 06:29:17 PM -30.9448 150.2152 289° West 155 178 8,000  Level Aus ATC (RADAR)
Thu 06:30:11 PM -30.9290 150.1724 293° West 155 178 8,000  Level Aus ATC (RADAR)
Thu 06:30:46 PM -30.9174 150.1460 297° West 154 177 8,000  Level Aus ATC (RADAR)
Thu 06:31:36 PM -30.9016 150.1079 296° West 155 178 8,000  Level Aus ATC (RADAR)
Thu 06:31:51 PM -30.8970 150.0964 295° West 154 177 8,000  Level Aus ATC (RADAR)
Thu 06:32:56 PM -30.8750 150.0474 298° West 155 178 8,000  Level Aus ATC (RADAR)
Thu 06:33:31 PM -30.8642 150.0204 295° West 155 178 8,000  Level Aus ATC (RADAR)
Thu 06:33:46 PM -30.8593 150.0091 297° West 155 178 8,000 120 Level Aus ATC (RADAR)
Thu 06:34:21 PM -30.8474 149.9827 298° West 156 180 8,100  Climbing Aus ATC (RADAR)
Thu 06:35:16 PM -30.8293 149.9409 297° West 155 178 8,000 -67 Descending Aus ATC (RADAR)
Thu 06:35:51 PM -30.8181 149.9143 296° West 155 178 8,000  Level Aus ATC (RADAR)
Thu 06:36:46 PM -30.8003 149.8724 296° West 156 180 8,000 67 Level Aus ATC (RADAR)
Thu 06:37:21 PM -30.7890 149.8457 296° West 156 180 8,100  Climbing Aus ATC (RADAR)
Thu 06:38:36 PM -30.7636 149.7892 298° West 157 181 8,000 -67 Descending Aus ATC (RADAR)
Thu 06:38:51 PM -30.7587 149.7776 296° West 157 181 8,000  Level Aus ATC (RADAR)
Thu 06:39:26 PM -30.7470 149.7510 297° West 157 181 8,000  Level Aus ATC (RADAR)
Thu 06:40:21 PM -30.7284 149.7092 297° West 156 180 8,000 67 Level Aus ATC (RADAR)
Thu 06:40:55 PM -30.7150 149.6834 301° West 157 181 8,100  Climbing Aus ATC (RADAR)
Thu 06:41:50 PM -30.6946 149.6424 300° West 158 182 8,000 -86 Descending Aus ATC (RADAR)
Thu 06:42:05 PM -30.6934 149.6291 276° West 158 182 8,000  Level Aus ATC (RADAR)
Thu 06:43:00 PM -30.6721 149.5888 302° West 157 181 8,000 67 Level Aus ATC (RADAR)
Thu 06:43:35 PM -30.6604 149.5622 297° West 157 181 8,100 120 Climbing Aus ATC (RADAR)
Thu 06:43:50 PM -30.6551 149.5509 299° West 157 181 8,100 -120 Level Aus ATC (RADAR)
Thu 06:44:25 PM -30.6433 149.5243 297° West 157 181 8,000 -63 Descending Aus ATC (RADAR)
Thu 06:45:25 PM -30.6227 149.4788 298° West 157 181 8,000  Level Aus ATC (RADAR)
Thu 06:46:00 PM -30.6116 149.4519 296° West 157 181 8,000 133 Level Aus ATC (RADAR)
Thu 06:46:55 PM -30.5958 149.4089 293° West 156 180 8,200  Climbing Aus ATC (RADAR)
Thu 06:47:30 PM -30.5835 149.3826 298° West 156 180 8,000 -104 Descending Aus ATC (RADAR)
Thu 06:48:50 PM -30.5576 149.3220 296° West 155 178 8,000  Level Aus ATC (RADAR)
Thu 06:49:05 PM -30.5533 149.3102 293° West 156 180 8,000 120 Level Aus ATC (RADAR)
Thu 06:49:40 PM -30.5427 149.2832 295° West 156 180 8,100  Climbing Aus ATC (RADAR)
Thu 06:50:40 PM -30.5237 149.2375 296° West 156 180 8,000 -64 Descending Aus ATC (RADAR)
Thu 06:51:14 PM -30.5139 149.2104 293° West 155 178 8,000  Level Aus ATC (RADAR)
Thu 06:52:09 PM -30.4956 149.1691 297° West 155 178 8,000 55 Level Aus ATC (RADAR)
Thu 06:53:04 PM -30.4801 149.1261 293° West 156 180 8,100  Climbing Aus ATC (RADAR)
Thu 06:54:14 PM -30.4584 149.0721 295° West 157 181 8,000 -71 Descending Aus ATC (RADAR)
Thu 06:54:29 PM -30.4531 149.0610 299° West 157 181 8,000  Level Aus ATC (RADAR)
Thu 06:55:29 PM -30.4336 149.0149 296° West 158 182 8,000 63 Level Aus ATC (RADAR)
Thu 06:56:04 PM -30.4226 148.9878 295° West 158 182 8,100  Climbing Aus ATC (RADAR)
Thu 06:57:04 PM -30.4039 148.9415 295° West 157 181 8,000 -63 Descending Aus ATC (RADAR)
Thu 06:57:39 PM -30.3945 148.9132 291° West 159 183 8,000 48 Level Aus ATC (RADAR)
Thu 06:59:09 PM -30.3629 148.8452 298° West 158 182 8,100 57 Climbing Aus ATC (RADAR)
Thu 06:59:24 PM -30.3574 148.8338 299° West 159 183 8,100 -120 Level Aus ATC (RADAR)
Thu 06:59:59 PM -30.3442 148.8078 301° West 159 183 8,000 -63 Descending Aus ATC (RADAR)
Thu 07:00:59 PM -30.3219 148.7631 300° West 159 183 8,000  Level Aus ATC (RADAR)
Thu 07:01:34 PM -30.3081 148.7375 302° West 159 183 8,000 64 Level Aus ATC (RADAR)
Thu 07:02:33 PM -30.2859 148.6925 300° West 159 183 8,100 -438 Climbing Aus ATC (RADAR)
Thu 07:07:08 PM -30.1981 148.4989 304° West 200 -514 Descending Aus ATC (Calculated)
Thu 07:09:00 PM -30.1236 148.3348 298° West  Level FlightAware Approximate
Thu 07:09:33 PM -30.1198 148.3669 298° West 199 229 4,500  Level Aus ATC (RADAR)
Thu 07:09:48 PM -30.1167 148.3537 285° West 178 205 4,300 -840 Descending Aus ATC (RADAR)
Thu 07:10:23 PM -30.1060 148.3244 293° West 171 197 3,800 -960 Descending Aus ATC (RADAR)
Thu 07:10:38 PM -30.1017 148.3120 292° West 170 196 3,500 -1,200 Descending Aus ATC (RADAR)
Thu 07:12:00 PM -30.0529 148.1886 295° West  Level FlightAware Approximate
Thu 07:19:00 PM -29.7885 147.5659 296° West  Level FlightAware Approximate
Thu 07:20:00 PM -29.7503 147.4773 296° West  Level FlightAware Approximate
Thu 07:21:00 PM -29.7120 147.3888 296° West  Level FlightAware Approximate
Thu 07:22:00 PM -29.6737 147.3003 296° West  Level FlightAware Approximate
Thu 07:23:00 PM -29.6353 147.2119 297° West  Level FlightAware Approximate
Thu 07:24:00 PM -29.5968 147.1236 297° West  Level FlightAware Approximate
Thu 07:25:00 PM -29.5583 147.0354 297° West  Level FlightAware Approximate
Thu 07:26:00 PM -29.5197 146.9472 297° West  Level FlightAware Approximate
Thu 07:27:00 PM -29.4811 146.8591 297° West  Level FlightAware Approximate
Thu 07:28:00 PM -29.4424 146.7711 297° West  Level FlightAware Approximate
Thu 07:29:00 PM -29.4037 146.6831 297° West  Level FlightAware Approximate
Thu 07:30:00 PM -29.3649 146.5952 297° West  Level FlightAware Approximate
Thu 07:31:00 PM -29.3260 146.5073 297° West  Level FlightAware Approximate
Thu 07:32:00 PM -29.2871 146.4196 297° West  Level FlightAware Approximate
Thu 07:33:00 PM -29.2481 146.3318 297° West  Level FlightAware Approximate
Thu 07:34:00 PM -29.2090 146.2442 297° West  Level FlightAware Approximate
Thu 07:35:00 PM -29.1700 146.1566 297° West  Level FlightAware Approximate
Thu 07:36:00 PM -29.1308 146.0691 297° West  Level FlightAware Approximate
Thu 07:37:00 PM -29.0916 145.9817 297° West  Level FlightAware Approximate
Thu 07:38:00 PM -29.0523 145.8943 297° West  Level FlightAware Approximate
Thu 07:39:00 PM -29.0130 145.8070 297° West  Level FlightAware Approximate
Thu 07:40:00 PM -28.9714 145.7211 300° West  Level FlightAware Approximate
Thu 07:41:00 PM -28.9287 145.6360 300° West  Level FlightAware Approximate
Thu 07:42:00 PM -28.8859 145.5510 300° West  Level FlightAware Approximate
Thu 07:43:00 PM -28.8431 145.4660 300° West  Level FlightAware Approximate
Thu 07:44:00 PM -28.8002 145.3811 300° West  Level FlightAware Approximate
Thu 07:45:00 PM -28.7572 145.2962 300° West  Level FlightAware Approximate
Thu 07:46:00 PM -28.7143 145.2115 300° West  Level FlightAware Approximate
Thu 07:47:00 PM -28.6712 145.1268 300° West  Level FlightAware Approximate
Thu 07:48:00 PM -28.6281 145.0421 300° West  Level FlightAware Approximate
Thu 07:49:00 PM -28.5850 144.9576 300° West  Level FlightAware Approximate
Thu 07:50:00 PM -28.5418 144.8731 300° West  Level FlightAware Approximate
Thu 07:51:00 PM -28.4985 144.7887 300° West  Level FlightAware Approximate
Thu 07:52:00 PM -28.4552 144.7043 300° West  Level FlightAware Approximate
Thu 07:53:00 PM -28.4118 144.6200 300° West  Level FlightAware Approximate
Thu 07:54:00 PM -28.3684 144.5358 300° West  Level FlightAware Approximate
Thu 07:55:00 PM -28.3465 144.4933 300° West  Level FlightAware Approximate
Thu 07:56:00 PM -28.3246 144.4509 300° West  Level FlightAware Approximate
Thu 07:57:00 PM -28.3027 144.4085 300° West  Level FlightAware Approximate
Thu 07:58:00 PM -28.2807 144.3661 300° West  Level FlightAware Approximate
Thu 07:59:00 PM -28.2588 144.3238 300° West  Level FlightAware Approximate
Thu 08:00:00 PM -28.2368 144.2814 300° West  Level FlightAware Approximate
Thu 08:01:00 PM -28.2148 144.2391 301° West  Level FlightAware Approximate
Thu 08:02:00 PM -28.1928 144.1967 301° West  Level FlightAware Approximate
Thu 08:03:00 PM -28.1708 144.1544 301° West  Level FlightAware Approximate
Thu 08:04:00 PM -28.1488 144.1122 301° West  Level FlightAware Approximate
Thu 08:05:00 PM -28.1267 144.0699 301° West  Level FlightAware Approximate
Thu 08:06:00 PM -28.1047 144.0276 301° West  Level FlightAware Approximate
Thu 08:07:00 PM -28.0826 143.9854 301° West  Level FlightAware Approximate
Thu 08:08:00 PM -28.0605 143.9432 301° West  Level FlightAware Approximate
Thu 08:09:00 PM -28.0384 143.9010 301° West  Level FlightAware Approximate
Thu 08:10:00 PM -28.0163 143.8588 301° West  Level FlightAware Approximate
Thu 08:11:00 PM -27.9942 143.8167 301° West  Level FlightAware Approximate
Thu 08:12:00 PM -27.9864 143.8109 333° Northwest  Level FlightAware Approximate
Thu 08:13:00 PM -27.9864 143.8108 333° Northwest  Level Estimated
Thu 08:14:00 PM -27.9864 143.8108 333° Northwest  Level Estimated
Thu 08:15:00 PM -27.9864 143.8108 333° Northwest  Level Estimated
Thu 08:16:00 PM -27.9864 143.8108 333° Northwest  Level Estimated
Thu 08:17:00 PM -27.9864 143.8108 333° Northwest  Level Estimated
Thu 08:18:00 PM -27.9864 143.8108 333° Northwest  Level Estimated
Thu 08:19:00 PM -27.9864 143.8108 333° Northwest  Level Estimated
Thu 08:20:00 PM -27.9864 143.8108 333° Northwest  Level Estimated
Thu 08:21:00 PM -27.9864 143.8108 333° Northwest  Level Estimated
Thu 08:22:00 PM -27.9864 143.8108 333° Northwest  Level Estimated
Thu 08:23:00 PM -27.9864 143.8108 333° Northwest  Level Estimated
Thu 08:24:00 PM -27.9864 143.8108 333° Northwest  Level Estimated
Thu 08:25:00 PM -27.9864 143.8108 333° Northwest  Level Estimated
Thu 08:26:00 PM -27.9864 143.8108 333° Northwest  Level Estimated
Thu 08:27:00 PM -27.9864 143.8108 333° Northwest  Level Estimated
Thu 08:28:00 PM -27.9864 143.8108 333° Northwest  Level Estimated
Thu 08:29:00 PM -27.9864 143.8108 333° Northwest  Level Estimated
Thu 08:30:00 PM -27.9864 143.8108 333° Northwest  Level Estimated
Thu 08:31:00 PM -27.9864 143.8108 333° Northwest  Level Estimated
Thu 08:32:00 PM -27.9864 143.8108 333° Northwest  Level Estimated
Thu 08:33:00 PM -27.9864 143.8108 333° Northwest  Level Estimated
Thu 08:34:00 PM -27.9864 143.8108 333° Northwest  Level Estimated
Thu 08:35:00 PM -27.9864 143.8108 333° Northwest  Level Estimated
Thu 08:36:00 PM -27.9864 143.8108 333° Northwest  Level Estimated
Thu 08:37:00 PM -27.9864 143.8108 333° Northwest  Level Estimated
Thu 08:38:00 PM -27.9864 143.8108 333° Northwest  Level Estimated
Thu 08:39:00 PM -27.9864 143.8108 333° Northwest  Level Estimated
Thu 08:40:00 PM -27.9864 143.8108 333° Northwest  Level Estimated
Thu 08:41:00 PM -27.9864 143.8108 333° Northwest  Level Estimated
Thu 08:42:00 PM -27.9864 143.8108 333° Northwest  Level Estimated
Thu 08:43:00 PM -27.9864 143.8108 333° Northwest  Level Estimated
Thu 08:44:00 PM -27.9864 143.8108 333° Northwest  Level Estimated
Thu 08:45:00 PM -27.9864 143.8108 333° Northwest  Level Estimated
Thu 08:46:00 PM -27.9864 143.8108 333° Northwest  Level Estimated
Thu 08:47:00 PM -27.9864 143.8108 333° Northwest  Level Estimated
Thu 08:48:00 PM -27.9864 143.8108 333° Northwest  Level Estimated
Thu 08:49:00 PM -27.9864 143.8108 333° Northwest  Level Estimated
Thu 08:50:00 PM -27.9864 143.8108 333° Northwest  Level Estimated
Thu 08:51:00 PM -27.9864 143.8108 333° Northwest  Level Estimated
Thu 08:52:00 PM -27.9864 143.8108 333° Northwest  Level Estimated
Thu 08:53:00 PM -27.9864 143.8108 333° Northwest  Level Estimated
Thu 08:54:00 PM -27.9864 143.8108 333° Northwest  Level Estimated
Thu 08:55:00 PM -27.9864 143.8108 333° Northwest  Level Estimated
Thu 08:56:00 PM -27.9864 143.8108 333° Northwest  Level Estimated
Thu 08:57:00 PM -27.9864 143.8108 333° Northwest  Level Estimated
Thu 08:58:00 PM -27.9864 143.8108 333° Northwest  Level Estimated
Thu 08:59:00 PM -27.9864 143.8108 333° Northwest  Level Estimated
Thu 09:00:00 PM -27.9864 143.8108 333° Northwest  Level Estimated
Thu 09:01:00 PM -27.9864 143.8108 333° Northwest  Level Estimated
Thu 09:02:00 PM -27.9864 143.8108 333° Northwest  Level Estimated
Thu 09:03:00 PM -27.9864 143.8108 333° Northwest  Level Estimated
Thu 09:04:00 PM -27.9864 143.8108 333° Northwest  Level Estimated
Thu 09:05:00 PM -27.9864 143.8108 333° Northwest  Level Estimated
Thu 09:06:00 PM -27.9864 143.8108 333° Northwest  Level Estimated
Thu 09:07:00 PM -27.9864 143.8108 333° Northwest  Level Estimated
Thu 09:08:00 PM -27.9864 143.8108 333° Northwest  Level Estimated
Thu 09:09:00 PM -27.9864 143.8108 333° Northwest  Level Estimated
Thu 09:10:00 PM -27.9864 143.8108 333° Northwest  Level Estimated
Thu 09:11:00 PM -27.9864 143.8108 333° Northwest  Level Estimated
Thu 09:12:00 PM -27.9864 143.8108 333° Northwest  Level Estimated
Thu 09:13:00 PM -27.9864 143.8108 333° Northwest  Level Estimated
Thu 09:14:00 PM -27.9864 143.8108 333° Northwest  Level Estimated
Thu 09:15:00 PM -27.9864 143.8108 333° Northwest  Level Estimated
Thu 09:16:00 PM -27.9864 143.8108 333° Northwest  Level Estimated
Thu 09:17:00 PM -27.9864 143.8108 333° Northwest  Level Estimated
Thu 09:18:00 PM -27.9864 143.8108 333° Northwest  Level Estimated
Thu 09:19:00 PM -27.9864 143.8108 333° Northwest  Level Estimated
Thu 09:20:00 PM -27.9864 143.8108 333° Northwest  Level Estimated
Thu 09:21:00 PM -27.9864 143.8108 333° Northwest  Level Estimated
Thu 09:22:00 PM -27.9864 143.8108 333° Northwest  Level Estimated
Thu 09:23:00 PM -27.9864 143.8108 333° Northwest  Level Estimated
Thu 09:24:00 PM -27.9864 143.8108 333° Northwest  Level Estimated
Thu 09:25:00 PM -27.9864 143.8108 333° Northwest  Level Estimated
Thu 09:26:00 PM -27.9864 143.8108 333° Northwest  Level Estimated
Thu 09:27:00 PM -27.9864 143.8108 333° Northwest  Level Estimated
Thu 09:28:00 PM -27.9864 143.8108 333° Northwest  Level Estimated
Thu 09:29:00 PM -27.9864 143.8108 333° Northwest  Level Estimated
Thu 09:30:00 PM -27.9864 143.8108 333° Northwest  Level Estimated
Thu 09:31:00 PM -27.9864 143.8108 333° Northwest  Level Estimated
Thu 09:32:00 PM -27.9864 143.8108 333° Northwest  Level Estimated
Thu 09:33:00 PM -27.9864 143.8108 333° Northwest  Level Estimated
Thu 09:34:00 PM -27.9864 143.8108 333° Northwest  Level Estimated
Thu 09:35:00 PM -27.9864 143.8108 333° Northwest  Level Estimated
Thu 09:36:00 PM -27.9864 143.8108 333° Northwest  Level Estimated
Thu 09:37:00 PM -27.9864 143.8108 333° Northwest  Level Estimated
Thu 09:38:00 PM -27.9864 143.8108 333° Northwest  Level Estimated
Thu 09:39:00 PM -27.9864 143.8108 333° Northwest  Level Estimated
Thu 09:40:00 PM -27.9864 143.8108 333° Northwest  Level Estimated
Thu 09:41:00 PM -27.9864 143.8108 333° Northwest  Level Estimated
Thu 09:42:00 PM -27.9864 143.8108 333° Northwest  Level Estimated

Login

Don't have an account? Register now (free) for customized features, flight alerts, and more!